Авиационная погода в Берлевоге

Регион: 
Погода METAR: 
ENBV 221150Z 23036G47KT 9999 BLSN SCT040 BKN053 M06/M09 Q1002
Время наблюдения
2022-01-22T11:50:00Z
Температура C
-6.0
Точка росы
-9.0
Направление ветра
230
Скорость ветра (узлы)
36
Метео видимость
6.21
Облачность
SCT
BKN
Нижняя граница облачности (футы)
4000
5300
Явления погоды
BLSN
Условия полета
VFR
SCT – разбросанная отдельная облачность; BKN – значительная (рассеянная, разорванная) облачность;
BLSN – метель низовая или общая;